createdAt,value
2023-03-06T00:00:55.101Z,8.40
2023-03-06T00:03:36.142Z,8.60
2023-03-06T00:06:17.595Z,8.50
2023-03-06T00:08:55.841Z,8.40
2023-03-06T00:11:40.883Z,8.80
2023-03-06T00:14:22.613Z,8.60
2023-03-06T00:16:56.689Z,8.80
2023-03-06T00:19:32.743Z,8.70
2023-03-06T00:22:08.150Z,8.70
2023-03-06T00:24:42.677Z,8.50
2023-03-06T00:27:14.485Z,8.50
2023-03-06T00:29:54.597Z,8.70
2023-03-06T00:32:27.808Z,8.80
2023-03-06T00:35:09.286Z,8.60
2023-03-06T00:40:37.394Z,8.60
2023-03-06T00:43:20.572Z,8.80
2023-03-06T00:45:59.220Z,8.80
2023-03-06T00:48:43.673Z,8.60
2023-03-06T00:51:26.069Z,8.60
2023-03-06T00:54:02.861Z,8.70
2023-03-06T00:56:48.019Z,8.60
2023-03-06T00:59:21.221Z,8.80
2023-03-06T01:01:52.685Z,8.80
2023-03-06T01:04:21.305Z,8.40
2023-03-06T01:06:52.606Z,8.60
2023-03-06T01:09:31.725Z,8.60
2023-03-06T01:12:03.880Z,8.60
2023-03-06T01:14:41.316Z,8.50
2023-03-06T01:17:12.311Z,8.30
2023-03-06T01:19:52.796Z,8.10
2023-03-06T01:22:31.459Z,8.40
2023-03-06T01:25:19.444Z,8.20
2023-03-06T01:28:03.368Z,8.50
2023-03-06T01:30:45.106Z,8.50
2023-03-06T01:33:13.692Z,8.40
2023-03-06T01:35:45.351Z,8.20
2023-03-06T01:38:20.748Z,8.20
2023-03-06T01:40:53.257Z,8.50
2023-03-06T01:43:41.668Z,8.50
2023-03-06T01:46:34.962Z,8.30
2023-03-06T01:49:14.353Z,8.30
2023-03-06T01:51:50.706Z,8.20
2023-03-06T01:54:27.299Z,8.30
2023-03-06T01:57:03.987Z,8.10
2023-03-06T01:59:53.144Z,8.30
2023-03-06T02:02:50.413Z,8.30
2023-03-06T02:05:22.875Z,8.30
2023-03-06T02:07:58.724Z,8.40
2023-03-06T02:10:37.838Z,8.40
2023-03-06T02:13:07.600Z,8.20
2023-03-06T02:15:39.495Z,8.20
2023-03-06T02:18:28.599Z,8.30
2023-03-06T02:21:10.610Z,8.40
2023-03-06T02:23:56.463Z,8.50
2023-03-06T02:26:39.783Z,8.50
2023-03-06T02:29:18.689Z,8.40
2023-03-06T02:32:11.606Z,8.40
2023-03-06T02:34:53.789Z,8.50
2023-03-06T02:37:29.397Z,8.40
2023-03-06T02:40:24.807Z,8.40
2023-03-06T02:43:08.777Z,8.50
2023-03-06T02:45:50.217Z,8.50
2023-03-06T02:48:25.387Z,8.40
2023-03-06T02:51:03.923Z,8.40
2023-03-06T02:53:43.253Z,8.40
2023-03-06T02:56:17.943Z,8.30
2023-03-06T02:58:55.599Z,8.30
2023-03-06T03:01:52.783Z,8.30
2023-03-06T03:04:29.319Z,8.20
2023-03-06T03:07:15.805Z,8.40
2023-03-06T03:10:10.741Z,8.20
2023-03-06T03:13:04.277Z,8.50
2023-03-06T03:15:38.619Z,8.30
2023-03-06T03:18:12.323Z,8.30
2023-03-06T03:21:00.075Z,8.40
2023-03-06T03:23:33.535Z,8.30
2023-03-06T03:26:11.688Z,8.40
2023-03-06T03:28:44.658Z,8.50
2023-03-06T03:31:24.276Z,8.40
2023-03-06T03:34:04.419Z,8.30
2023-03-06T03:36:49.584Z,8.40
2023-03-06T03:39:29.151Z,8.20
2023-03-06T03:42:05.548Z,8.40
2023-03-06T03:44:44.688Z,8.40
2023-03-06T03:47:27.384Z,8.30
2023-03-06T03:49:59.264Z,8.30
2023-03-06T03:52:35.287Z,8.40
2023-03-06T03:55:09.079Z,8.30
2023-03-06T03:57:46.264Z,8.40
2023-03-06T04:00:18.766Z,8.40
2023-03-06T04:03:07.833Z,8.10
2023-03-06T04:05:45.540Z,8.40
2023-03-06T04:08:13.593Z,8.50
2023-03-06T04:10:41.877Z,8.40
2023-03-06T04:13:18.307Z,8.40
2023-03-06T04:15:50.514Z,8.40
2023-03-06T04:18:25.428Z,8.40
2023-03-06T04:21:01.146Z,8.60
2023-03-06T04:23:35.041Z,8.30
2023-03-06T04:26:13.011Z,8.50
2023-03-06T04:28:44.073Z,8.60
2023-03-06T04:31:18.920Z,8.50
2023-03-06T04:34:08.379Z,8.40
2023-03-06T04:36:38.681Z,8.30
2023-03-06T04:39:07.375Z,8.30
2023-03-06T04:41:44.956Z,8.60
2023-03-06T04:44:22.088Z,8.60
2023-03-06T04:46:56.625Z,8.60
2023-03-06T04:49:38.259Z,8.40
2023-03-06T04:52:11.513Z,8.60
2023-03-06T04:54:39.926Z,8.80
2023-03-06T04:57:24.682Z,8.90
2023-03-06T05:00:03.396Z,8.80
2023-03-06T05:02:53.611Z,9.00
2023-03-06T05:06:07.767Z,8.90
2023-03-06T05:08:48.509Z,8.90
2023-03-06T05:11:49.310Z,8.50
2023-03-06T05:18:24.320Z,8.90
2023-03-06T05:21:27.004Z,8.80
2023-03-06T05:24:13.070Z,8.60
2023-03-06T05:43:04.512Z,8.80
2023-03-06T05:46:36.696Z,8.70
2023-03-06T05:49:57.450Z,8.60
2023-03-06T05:52:37.383Z,8.30
2023-03-06T05:56:47.105Z,8.60
2023-03-06T06:08:24.165Z,8.70
2023-03-06T06:11:16.077Z,8.60
2023-03-06T06:14:09.600Z,8.70
2023-03-06T06:16:56.523Z,8.80
2023-03-06T06:19:51.213Z,8.80
2023-03-06T06:22:41.282Z,8.90
2023-03-06T06:25:12.548Z,8.80
2023-03-06T06:28:12.763Z,8.80
2023-03-06T06:31:55.183Z,8.90
2023-03-06T06:38:59.338Z,8.70
2023-03-06T06:41:59.813Z,8.60
2023-03-06T06:44:37.450Z,8.80
2023-03-06T06:47:22.342Z,8.40
2023-03-06T06:51:07.604Z,8.30
2023-03-06T06:53:55.050Z,8.30
2023-03-06T06:56:23.250Z,8.30
2023-03-06T06:58:55.909Z,8.30
2023-03-06T07:01:58.020Z,8.30
2023-03-06T07:05:00.643Z,8.50
2023-03-06T07:07:51.253Z,8.40
2023-03-06T07:10:25.375Z,8.40
2023-03-06T07:12:59.216Z,8.60
2023-03-06T07:15:51.260Z,8.40
2023-03-06T07:18:21.357Z,8.50
2023-03-06T07:20:49.181Z,8.50
2023-03-06T07:24:06.589Z,8.50
2023-03-06T07:31:17.110Z,8.10
2023-03-06T07:34:01.903Z,8.00
2023-03-06T07:36:30.945Z,8.10
2023-03-06T07:38:58.806Z,8.20
2023-03-06T07:41:26.565Z,8.20
2023-03-06T07:43:54.377Z,8.00
2023-03-06T07:46:23.915Z,8.20
2023-03-06T07:48:51.848Z,8.10
2023-03-06T07:51:22.011Z,8.00
2023-03-06T07:53:51.193Z,8.00
2023-03-06T07:56:18.932Z,8.10
2023-03-06T07:58:48.372Z,8.10
2023-03-06T08:01:35.128Z,8.00
2023-03-06T08:22:34.752Z,7.80
2023-03-06T08:41:09.881Z,7.70
2023-03-06T08:44:20.310Z,7.70
2023-03-06T08:56:02.375Z,7.80
2023-03-06T09:03:03.974Z,7.50
2023-03-06T09:05:38.009Z,7.50
2023-03-06T09:08:55.963Z,7.70
2023-03-06T09:12:01.457Z,7.80
2023-03-06T09:22:19.811Z,7.60
2023-03-06T09:25:11.152Z,7.40
2023-03-06T09:27:41.790Z,7.50
2023-03-06T09:30:13.176Z,7.50
2023-03-06T09:32:41.032Z,7.40
2023-03-06T09:35:09.625Z,7.60
2023-03-06T09:37:37.669Z,7.50
2023-03-06T09:40:07.055Z,7.40
2023-03-06T09:42:36.133Z,7.50
2023-03-06T09:45:06.367Z,7.40
2023-03-06T09:47:49.156Z,7.30
2023-03-06T09:50:35.871Z,7.30
2023-03-06T09:53:20.072Z,7.40
2023-03-06T09:55:56.744Z,7.10
2023-03-06T09:58:26.560Z,7.20
2023-03-06T10:01:04.910Z,7.30
2023-03-06T10:03:39.323Z,7.30
2023-03-06T10:06:14.530Z,7.50
2023-03-06T10:08:50.277Z,7.50
2023-03-06T10:11:23.310Z,7.60
2023-03-06T10:13:58.393Z,7.50
2023-03-06T10:16:30.690Z,7.60
2023-03-06T10:19:03.177Z,7.60
2023-03-06T10:21:46.899Z,7.70
2023-03-06T10:24:38.840Z,7.80
2023-03-06T10:27:23.453Z,7.70
2023-03-06T10:30:03.986Z,7.70
2023-03-06T10:32:55.679Z,7.80
2023-03-06T10:35:44.376Z,7.80
2023-03-06T10:38:20.848Z,7.60
2023-03-06T10:40:59.428Z,7.50
2023-03-06T10:43:27.450Z,7.70
2023-03-06T10:45:55.793Z,7.70
2023-03-06T10:48:25.530Z,7.60
2023-03-06T10:51:18.914Z,7.50
2023-03-06T10:53:58.463Z,7.70
2023-03-06T11:01:09.406Z,7.80
2023-03-06T11:04:28.033Z,7.70
2023-03-06T11:07:48.317Z,7.70
2023-03-06T11:10:51.954Z,7.70
2023-03-06T11:14:14.968Z,7.50
2023-03-06T11:17:07.075Z,7.50
2023-03-06T11:19:40.786Z,7.40
2023-03-06T11:22:22.290Z,7.50
2023-03-06T11:24:53.865Z,7.50
2023-03-06T11:27:30.337Z,7.40
2023-03-06T11:30:03.031Z,7.40
2023-03-06T11:32:43.960Z,7.50
2023-03-06T11:35:16.305Z,7.50
2023-03-06T11:37:48.664Z,7.60
2023-03-06T11:40:21.638Z,7.70
2023-03-06T11:43:00.535Z,7.90
2023-03-06T11:45:34.801Z,8.00
2023-03-06T11:48:19.088Z,7.60
2023-03-06T11:50:49.240Z,7.90
2023-03-06T11:53:19.736Z,7.80
2023-03-06T11:55:57.245Z,8.20
2023-03-06T11:58:51.464Z,8.00
2023-03-06T12:01:25.768Z,8.20
2023-03-06T12:04:25.292Z,8.30
2023-03-06T12:07:35.749Z,8.40
2023-03-06T12:10:14.244Z,8.50
2023-03-06T12:13:08.773Z,8.80
2023-03-06T12:15:56.777Z,9.00
2023-03-06T12:18:37.265Z,8.80
2023-03-06T12:21:10.429Z,8.90
2023-03-06T12:24:08.595Z,9.10
2023-03-06T12:27:14.305Z,9.30
2023-03-06T12:30:01.645Z,9.40
2023-03-06T12:32:44.865Z,9.60
2023-03-06T12:35:33.640Z,9.50
2023-03-06T12:38:14.702Z,9.70
2023-03-06T12:40:55.527Z,9.90
2023-03-06T12:44:01.967Z,9.90
2023-03-06T12:46:30.561Z,10.00
2023-03-06T12:49:05.413Z,10.00
2023-03-06T12:51:35.188Z,10.10
2023-03-06T12:54:04.175Z,10.10
2023-03-06T12:56:34.091Z,10.10
2023-03-06T12:59:03.030Z,10.30
2023-03-06T13:02:05.411Z,10.50
2023-03-06T13:04:49.065Z,10.30
2023-03-06T13:07:31.392Z,10.10
2023-03-06T13:10:13.192Z,10.30
2023-03-06T13:13:01.216Z,10.30
2023-03-06T13:15:36.217Z,10.30
2023-03-06T13:18:57.387Z,10.40
2023-03-06T13:22:03.944Z,10.30
2023-03-06T13:24:34.791Z,10.40
2023-03-06T13:27:06.132Z,10.40
2023-03-06T13:30:22.020Z,10.30
2023-03-06T13:32:52.703Z,10.40
2023-03-06T13:35:54.675Z,10.20
2023-03-06T13:38:38.540Z,10.10
2023-03-06T13:41:43.148Z,10.20
2023-03-06T13:44:43.158Z,10.10
2023-03-06T13:47:34.524Z,10.40
2023-03-06T13:50:14.065Z,10.40
2023-03-06T13:52:54.249Z,10.40
2023-03-06T13:55:27.546Z,10.50
2023-03-06T13:58:09.426Z,10.40
2023-03-06T14:00:59.344Z,10.50
2023-03-06T14:03:52.568Z,10.60
2023-03-06T14:06:54.430Z,10.40
2023-03-06T14:09:29.103Z,10.40
2023-03-06T14:12:00.734Z,10.30
2023-03-06T14:14:35.754Z,10.20
2023-03-06T14:17:06.231Z,10.40
2023-03-06T14:19:39.345Z,10.40
2023-03-06T14:22:14.113Z,10.30
2023-03-06T14:24:52.522Z,10.40
2023-03-06T14:27:20.624Z,10.20
2023-03-06T14:29:48.797Z,10.20
2023-03-06T14:32:22.543Z,10.40
2023-03-06T14:34:52.037Z,10.50
2023-03-06T14:37:22.773Z,10.40
2023-03-06T14:39:50.625Z,10.50
2023-03-06T14:42:20.576Z,10.20
2023-03-06T14:44:49.818Z,10.20
2023-03-06T14:47:30.991Z,10.50
2023-03-06T14:50:23.137Z,10.60
2023-03-06T14:52:56.028Z,10.50
2023-03-06T14:55:26.753Z,10.60
2023-03-06T14:57:59.229Z,10.70
2023-03-06T15:00:33.487Z,10.80
2023-03-06T15:03:06.290Z,10.80
2023-03-06T15:05:35.210Z,10.90
2023-03-06T15:08:07.973Z,10.90
2023-03-06T15:10:37.469Z,10.90
2023-03-06T15:13:19.882Z,10.90
2023-03-06T15:15:57.239Z,10.90
2023-03-06T15:18:33.766Z,10.80
2023-03-06T15:21:10.162Z,11.00
2023-03-06T15:23:40.800Z,11.10
2023-03-06T15:27:01.069Z,11.00
2023-03-06T15:33:27.710Z,11.10
2023-03-06T15:35:58.621Z,11.00
2023-03-06T15:38:56.495Z,11.20
2023-03-06T15:41:29.667Z,11.00
2023-03-06T15:44:39.301Z,11.30
2023-03-06T15:47:09.860Z,11.40
2023-03-06T15:49:41.148Z,11.10
2023-03-06T15:52:23.682Z,11.30
2023-03-06T15:54:54.618Z,11.30
2023-03-06T16:01:38.383Z,11.30
2023-03-06T16:04:06.259Z,11.30
2023-03-06T16:06:34.087Z,11.20
2023-03-06T16:09:03.338Z,11.00
2023-03-06T16:11:49.966Z,10.90
2023-03-06T16:14:23.880Z,10.90
2023-03-06T16:16:54.166Z,10.70
2023-03-06T16:19:25.936Z,10.60
2023-03-06T16:21:54.752Z,10.50
2023-03-06T16:24:26.062Z,10.50
2023-03-06T16:26:58.216Z,10.40
2023-03-06T16:29:28.429Z,10.30
2023-03-06T16:31:58.141Z,10.10
2023-03-06T16:34:26.217Z,10.00
2023-03-06T16:36:54.317Z,9.90
2023-03-06T16:39:24.870Z,9.70
2023-03-06T16:41:53.314Z,9.90
2023-03-06T16:44:22.000Z,10.00
2023-03-06T16:46:51.112Z,9.80
2023-03-06T16:49:21.164Z,9.70
2023-03-06T16:51:49.409Z,10.00
2023-03-06T16:54:18.193Z,10.00
2023-03-06T16:56:47.437Z,10.00
2023-03-06T16:59:15.470Z,10.00
2023-03-06T17:01:43.740Z,10.00
2023-03-06T17:04:12.034Z,10.00
2023-03-06T17:06:41.742Z,9.90
2023-03-06T17:09:10.851Z,9.80
2023-03-06T17:11:39.552Z,9.90
2023-03-06T17:14:08.823Z,9.80
2023-03-06T17:16:40.293Z,9.70
2023-03-06T17:19:08.345Z,9.60
2023-03-06T17:21:38.335Z,9.30
2023-03-06T17:24:07.216Z,9.20
2023-03-06T17:26:36.511Z,9.40
2023-03-06T17:29:13.476Z,9.40
2023-03-06T17:31:44.931Z,9.30
2023-03-06T17:34:14.726Z,9.20
2023-03-06T17:36:42.646Z,9.30
2023-03-06T17:39:11.689Z,9.10
2023-03-06T17:41:39.533Z,9.10
2023-03-06T17:44:10.045Z,8.90
2023-03-06T17:46:38.114Z,9.00
2023-03-06T17:49:12.305Z,8.80
2023-03-06T17:51:55.097Z,8.90
2023-03-06T17:55:09.217Z,8.70
2023-03-06T17:57:36.916Z,8.70
2023-03-06T18:00:08.064Z,8.70
2023-03-06T18:02:36.044Z,8.60
2023-03-06T18:05:04.147Z,8.40
2023-03-06T18:07:32.081Z,8.30
2023-03-06T18:13:46.446Z,8.50
2023-03-06T18:16:22.213Z,8.40
2023-03-06T18:18:54.018Z,8.20
2023-03-06T18:21:22.311Z,8.30
2023-03-06T18:23:50.681Z,8.40
2023-03-06T18:26:21.558Z,8.30
2023-03-06T18:28:56.817Z,8.30
2023-03-06T18:31:28.128Z,7.90
2023-03-06T18:33:58.210Z,7.70
2023-03-06T18:36:28.318Z,8.00
2023-03-06T18:39:12.501Z,7.60
2023-03-06T18:41:41.452Z,7.90
2023-03-06T18:44:09.756Z,7.80
2023-03-06T18:46:39.477Z,7.80
2023-03-06T18:49:08.259Z,7.60
2023-03-06T18:51:36.457Z,7.70
2023-03-06T18:54:10.996Z,7.50
2023-03-06T18:56:44.186Z,7.50
2023-03-06T18:59:18.829Z,7.30
2023-03-06T19:01:51.984Z,7.60
2023-03-06T19:04:19.985Z,7.70
2023-03-06T19:06:53.847Z,7.60
2023-03-06T19:09:24.700Z,7.70
2023-03-06T19:11:54.960Z,7.80
2023-03-06T19:14:22.859Z,7.80
2023-03-06T19:16:52.318Z,7.70
2023-03-06T19:19:20.477Z,7.70
2023-03-06T19:21:48.324Z,7.60
2023-03-06T19:24:16.106Z,7.50
2023-03-06T19:26:44.477Z,7.50
2023-03-06T19:29:12.396Z,7.40
2023-03-06T19:31:40.343Z,7.30
2023-03-06T19:34:09.645Z,7.40
2023-03-06T19:36:39.230Z,7.10
2023-03-06T19:39:09.532Z,7.20
2023-03-06T19:41:37.558Z,7.30
2023-03-06T19:44:06.256Z,7.40
2023-03-06T19:46:36.108Z,7.20
2023-03-06T19:49:09.608Z,7.20
2023-03-06T19:51:39.142Z,7.20
2023-03-06T19:54:07.005Z,7.10
2023-03-06T19:56:34.751Z,7.00
2023-03-06T19:59:02.801Z,6.80
2023-03-06T20:01:30.870Z,7.00
2023-03-06T20:04:00.037Z,6.90
2023-03-06T20:06:31.059Z,7.00
2023-03-06T20:09:01.692Z,7.00
2023-03-06T20:11:30.933Z,7.00
2023-03-06T20:14:00.303Z,7.00
2023-03-06T20:16:29.802Z,6.90
2023-03-06T20:19:00.191Z,6.90
2023-03-06T20:21:29.759Z,6.80
2023-03-06T20:23:58.783Z,6.70
2023-03-06T20:26:29.774Z,6.90
2023-03-06T20:28:59.173Z,6.90
2023-03-06T20:31:29.319Z,6.80
2023-03-06T20:33:59.536Z,6.80
2023-03-06T20:36:29.550Z,6.70
2023-03-06T20:39:00.021Z,6.40
2023-03-06T20:41:31.143Z,6.50
2023-03-06T20:43:59.353Z,6.50
2023-03-06T20:46:27.529Z,6.50
2023-03-06T20:48:55.971Z,6.50
2023-03-06T20:51:25.485Z,6.60
2023-03-06T20:53:54.205Z,6.70
2023-03-06T20:56:26.250Z,6.70
2023-03-06T20:58:55.620Z,6.50
2023-03-06T21:01:24.912Z,6.60
2023-03-06T21:03:56.751Z,6.70
2023-03-06T21:06:26.227Z,6.80
2023-03-06T21:08:54.236Z,6.90
2023-03-06T21:11:22.877Z,6.70
2023-03-06T21:13:53.330Z,6.60
2023-03-06T21:16:25.078Z,6.50
2023-03-06T21:18:55.471Z,6.50
2023-03-06T21:21:25.560Z,6.60
2023-03-06T21:23:57.678Z,6.50
2023-03-06T21:26:30.867Z,6.50
2023-03-06T21:28:59.236Z,6.50
2023-03-06T21:31:29.375Z,6.60
2023-03-06T21:33:58.737Z,6.60
2023-03-06T21:36:29.693Z,6.60
2023-03-06T21:38:57.473Z,6.50
2023-03-06T21:41:27.909Z,6.50
2023-03-06T21:43:56.826Z,6.60
2023-03-06T21:46:25.182Z,6.70
2023-03-06T21:48:54.899Z,6.70
2023-03-06T21:51:24.781Z,6.70
2023-03-06T21:54:00.235Z,6.50
2023-03-06T21:56:34.450Z,6.70
2023-03-06T21:59:02.661Z,6.60
2023-03-06T22:01:30.637Z,6.70
2023-03-06T22:04:00.794Z,6.50
2023-03-06T22:06:29.883Z,6.80
2023-03-06T22:08:59.280Z,6.60
2023-03-06T22:11:31.141Z,6.70
2023-03-06T22:13:59.243Z,6.70
2023-03-06T22:16:27.724Z,6.80
2023-03-06T22:19:00.368Z,6.70
2023-03-06T22:21:28.457Z,6.90
2023-03-06T22:23:58.489Z,7.00
2023-03-06T22:26:27.561Z,7.10
2023-03-06T22:28:58.632Z,7.00
2023-03-06T22:31:28.464Z,7.00
2023-03-06T22:33:57.748Z,7.20
2023-03-06T22:36:28.641Z,7.10
2023-03-06T22:38:59.046Z,7.10
2023-03-06T22:41:30.201Z,6.90
2023-03-06T22:43:58.846Z,7.20
2023-03-06T22:46:32.170Z,7.20
2023-03-06T22:49:01.859Z,7.20
2023-03-06T22:51:31.261Z,7.20
2023-03-06T22:54:01.849Z,7.20
2023-03-06T22:56:29.695Z,7.10
2023-03-06T22:58:58.148Z,6.90
2023-03-06T23:01:27.805Z,6.90
2023-03-06T23:03:57.729Z,7.00
2023-03-06T23:06:27.446Z,7.10
2023-03-06T23:09:00.942Z,7.10
2023-03-06T23:11:30.199Z,7.00
2023-03-06T23:13:58.495Z,7.00
2023-03-06T23:16:26.641Z,6.90
2023-03-06T23:18:55.002Z,7.00
2023-03-06T23:21:23.256Z,7.20
2023-03-06T23:23:52.351Z,7.30
2023-03-06T23:26:24.589Z,7.20
2023-03-06T23:28:53.330Z,7.30
2023-03-06T23:31:28.366Z,7.00
2023-03-06T23:33:58.653Z,7.10
2023-03-06T23:36:29.109Z,7.10
2023-03-06T23:38:57.605Z,6.70
2023-03-06T23:41:27.130Z,6.70
2023-03-06T23:43:55.523Z,6.90
2023-03-06T23:46:23.760Z,7.10
2023-03-06T23:48:51.657Z,6.90
2023-03-06T23:51:21.219Z,6.90
2023-03-06T23:53:54.414Z,6.80
2023-03-06T23:56:22.500Z,7.00
2023-03-06T23:58:52.006Z,6.90
